sensor_id;sensor_type;location;lat;lon;timestamp;temperature;humidity
70336;SHT31;57756;47.408;18.940;2023-02-26T00:01:34;3.83;80.92
70336;SHT31;57756;47.408;18.940;2023-02-26T00:04:02;3.85;80.64
70336;SHT31;57756;47.408;18.940;2023-02-26T00:06:31;3.79;80.36
70336;SHT31;57756;47.408;18.940;2023-02-26T00:08:57;3.77;81.59
70336;SHT31;57756;47.408;18.940;2023-02-26T00:11:22;3.78;80.24
70336;SHT31;57756;47.408;18.940;2023-02-26T00:13:48;3.74;80.14
70336;SHT31;57756;47.408;18.940;2023-02-26T00:16:33;3.77;80.45
70336;SHT31;57756;47.408;18.940;2023-02-26T00:19:02;3.75;80.11
70336;SHT31;57756;47.408;18.940;2023-02-26T00:21:29;3.70;80.52
70336;SHT31;57756;47.408;18.940;2023-02-26T00:23:55;3.68;80.43
70336;SHT31;57756;47.408;18.940;2023-02-26T00:26:22;3.68;79.92
70336;SHT31;57756;47.408;18.940;2023-02-26T00:28:48;3.64;80.18
70336;SHT31;57756;47.408;18.940;2023-02-26T00:31:15;3.62;80.55
70336;SHT31;57756;47.408;18.940;2023-02-26T00:33:41;3.60;80.54
70336;SHT31;57756;47.408;18.940;2023-02-26T00:36:37;3.57;80.21
70336;SHT31;57756;47.408;18.940;2023-02-26T00:41:46;3.53;81.00
70336;SHT31;57756;47.408;18.940;2023-02-26T00:44:11;3.53;80.92
70336;SHT31;57756;47.408;18.940;2023-02-26T00:46:50;3.53;80.32
70336;SHT31;57756;47.408;18.940;2023-02-26T00:52:05;3.50;80.83
70336;SHT31;57756;47.408;18.940;2023-02-26T00:54:32;3.51;80.54
70336;SHT31;57756;47.408;18.940;2023-02-26T00:56:58;3.50;80.88
70336;SHT31;57756;47.408;18.940;2023-02-26T00:59:25;3.53;80.15
70336;SHT31;57756;47.408;18.940;2023-02-26T01:01:51;3.50;80.35
70336;SHT31;57756;47.408;18.940;2023-02-26T01:04:19;3.45;81.25
70336;SHT31;57756;47.408;18.940;2023-02-26T01:06:51;3.47;81.18
70336;SHT31;57756;47.408;18.940;2023-02-26T01:09:33;3.51;80.63
70336;SHT31;57756;47.408;18.940;2023-02-26T01:12:03;3.44;80.58
70336;SHT31;57756;47.408;18.940;2023-02-26T01:14:30;3.51;80.17
70336;SHT31;57756;47.408;18.940;2023-02-26T01:22:11;3.40;81.27
70336;SHT31;57756;47.408;18.940;2023-02-26T01:24:38;3.41;81.13
70336;SHT31;57756;47.408;18.940;2023-02-26T01:27:04;3.41;80.86
70336;SHT31;57756;47.408;18.940;2023-02-26T01:29:30;3.38;80.58
70336;SHT31;57756;47.408;18.940;2023-02-26T01:31:59;3.47;80.56
70336;SHT31;57756;47.408;18.940;2023-02-26T01:34:49;3.44;80.34
70336;SHT31;57756;47.408;18.940;2023-02-26T01:42:18;3.34;80.77
70336;SHT31;57756;47.408;18.940;2023-02-26T01:45:33;3.34;80.81
70336;SHT31;57756;47.408;18.940;2023-02-26T01:48:06;3.31;80.64
70336;SHT31;57756;47.408;18.940;2023-02-26T01:50:35;3.30;80.52
70336;SHT31;57756;47.408;18.940;2023-02-26T01:55:43;3.31;80.66
70336;SHT31;57756;47.408;18.940;2023-02-26T01:58:10;3.26;81.00
70336;SHT31;57756;47.408;18.940;2023-02-26T02:00:36;3.26;81.12
70336;SHT31;57756;47.408;18.940;2023-02-26T02:03:03;3.26;80.65
70336;SHT31;57756;47.408;18.940;2023-02-26T02:05:38;3.23;81.23
70336;SHT31;57756;47.408;18.940;2023-02-26T02:08:05;3.24;80.82
70336;SHT31;57756;47.408;18.940;2023-02-26T02:10:31;3.23;80.58
70336;SHT31;57756;47.408;18.940;2023-02-26T02:15:37;3.19;80.96
70336;SHT31;57756;47.408;18.940;2023-02-26T02:18:21;3.17;80.96
70336;SHT31;57756;47.408;18.940;2023-02-26T02:23:19;3.13;81.53
70336;SHT31;57756;47.408;18.940;2023-02-26T02:28:58;3.09;81.27
70336;SHT31;57756;47.408;18.940;2023-02-26T02:31:32;3.06;81.78
70336;SHT31;57756;47.408;18.940;2023-02-26T02:34:23;3.06;81.70
70336;SHT31;57756;47.408;18.940;2023-02-26T02:37:01;3.09;81.42
70336;SHT31;57756;47.408;18.940;2023-02-26T02:39:33;3.07;81.67
70336;SHT31;57756;47.408;18.940;2023-02-26T02:42:07;3.02;81.44
70336;SHT31;57756;47.408;18.940;2023-02-26T02:44:45;3.02;81.42
70336;SHT31;57756;47.408;18.940;2023-02-26T02:47:14;2.96;81.71
70336;SHT31;57756;47.408;18.940;2023-02-26T02:50:08;3.00;81.94
70336;SHT31;57756;47.408;18.940;2023-02-26T02:52:51;3.00;81.89
70336;SHT31;57756;47.408;18.940;2023-02-26T02:55:22;2.95;82.20
70336;SHT31;57756;47.408;18.940;2023-02-26T02:58:20;2.91;82.51
70336;SHT31;57756;47.408;18.940;2023-02-26T03:00:55;2.89;82.54
70336;SHT31;57756;47.408;18.940;2023-02-26T03:06:03;2.93;82.30
70336;SHT31;57756;47.408;18.940;2023-02-26T03:08:34;2.95;82.16
70336;SHT31;57756;47.408;18.940;2023-02-26T03:11:00;2.92;82.45
70336;SHT31;57756;47.408;18.940;2023-02-26T03:13:26;2.86;82.40
70336;SHT31;57756;47.408;18.940;2023-02-26T03:19:03;2.89;82.54
70336;SHT31;57756;47.408;18.940;2023-02-26T03:24:37;2.86;82.50
70336;SHT31;57756;47.408;18.940;2023-02-26T03:27:19;2.89;82.91
70336;SHT31;57756;47.408;18.940;2023-02-26T03:38:23;2.74;83.44
70336;SHT31;57756;47.408;18.940;2023-02-26T03:40:55;2.75;83.21
70336;SHT31;57756;47.408;18.940;2023-02-26T03:43:32;2.69;83.22
70336;SHT31;57756;47.408;18.940;2023-02-26T03:46:04;2.71;83.20
70336;SHT31;57756;47.408;18.940;2023-02-26T03:48:33;2.72;83.21
70336;SHT31;57756;47.408;18.940;2023-02-26T03:51:04;2.69;83.12
70336;SHT31;57756;47.408;18.940;2023-02-26T03:53:35;2.68;83.65
70336;SHT31;57756;47.408;18.940;2023-02-26T03:56:12;2.65;83.48
70336;SHT31;57756;47.408;18.940;2023-02-26T03:58:40;2.64;83.24
70336;SHT31;57756;47.408;18.940;2023-02-26T04:01:10;2.64;83.14
70336;SHT31;57756;47.408;18.940;2023-02-26T04:03:47;2.66;83.39
70336;SHT31;57756;47.408;18.940;2023-02-26T04:06:13;2.65;83.17
70336;SHT31;57756;47.408;18.940;2023-02-26T04:08:39;2.61;83.33
70336;SHT31;57756;47.408;18.940;2023-02-26T04:13:32;2.62;83.88
70336;SHT31;57756;47.408;18.940;2023-02-26T04:15:58;2.59;83.87
70336;SHT31;57756;47.408;18.940;2023-02-26T04:18:23;2.52;83.78
70336;SHT31;57756;47.408;18.940;2023-02-26T04:20:49;2.47;84.03
70336;SHT31;57756;47.408;18.940;2023-02-26T04:23:14;2.51;83.93
70336;SHT31;57756;47.408;18.940;2023-02-26T04:25:39;2.51;83.82
70336;SHT31;57756;47.408;18.940;2023-02-26T04:28:05;2.51;83.65
70336;SHT31;57756;47.408;18.940;2023-02-26T04:30:31;2.47;83.54
70336;SHT31;57756;47.408;18.940;2023-02-26T04:32:56;2.42;83.70
70336;SHT31;57756;47.408;18.940;2023-02-26T04:35:22;2.51;83.82
70336;SHT31;57756;47.408;18.940;2023-02-26T04:37:47;2.40;83.65
70336;SHT31;57756;47.408;18.940;2023-02-26T04:40:13;2.42;83.77
70336;SHT31;57756;47.408;18.940;2023-02-26T04:42:39;2.42;83.80
70336;SHT31;57756;47.408;18.940;2023-02-26T04:45:05;2.44;83.69
70336;SHT31;57756;47.408;18.940;2023-02-26T04:47:30;2.42;83.71
70336;SHT31;57756;47.408;18.940;2023-02-26T04:49:56;2.41;83.62
70336;SHT31;57756;47.408;18.940;2023-02-26T04:52:21;2.34;83.71
70336;SHT31;57756;47.408;18.940;2023-02-26T04:54:47;2.37;83.64
70336;SHT31;57756;47.408;18.940;2023-02-26T04:57:12;2.36;84.16
70336;SHT31;57756;47.408;18.940;2023-02-26T04:59:38;2.31;84.38
70336;SHT31;57756;47.408;18.940;2023-02-26T05:02:04;2.37;84.15
70336;SHT31;57756;47.408;18.940;2023-02-26T05:04:30;2.38;83.97
70336;SHT31;57756;47.408;18.940;2023-02-26T05:06:55;2.33;84.02
70336;SHT31;57756;47.408;18.940;2023-02-26T05:09:21;2.33;84.39
70336;SHT31;57756;47.408;18.940;2023-02-26T05:11:47;2.27;84.46
70336;SHT31;57756;47.408;18.940;2023-02-26T05:14:13;2.28;84.40
70336;SHT31;57756;47.408;18.940;2023-02-26T05:16:39;2.28;84.37
70336;SHT31;57756;47.408;18.940;2023-02-26T05:19:04;2.23;84.37
70336;SHT31;57756;47.408;18.940;2023-02-26T05:21:30;2.21;83.96
70336;SHT31;57756;47.408;18.940;2023-02-26T05:23:55;2.19;84.54
70336;SHT31;57756;47.408;18.940;2023-02-26T05:26:21;2.17;84.89
70336;SHT31;57756;47.408;18.940;2023-02-26T05:28:46;2.13;84.94
70336;SHT31;57756;47.408;18.940;2023-02-26T05:31:13;2.14;85.00
70336;SHT31;57756;47.408;18.940;2023-02-26T05:33:39;2.19;85.22
70336;SHT31;57756;47.408;18.940;2023-02-26T05:36:05;2.13;85.06
70336;SHT31;57756;47.408;18.940;2023-02-26T05:38:33;2.17;85.02
70336;SHT31;57756;47.408;18.940;2023-02-26T05:40:59;2.17;85.06
70336;SHT31;57756;47.408;18.940;2023-02-26T05:43:26;2.21;84.70
70336;SHT31;57756;47.408;18.940;2023-02-26T05:45:52;2.13;85.17
70336;SHT31;57756;47.408;18.940;2023-02-26T05:48:18;2.16;84.99
70336;SHT31;57756;47.408;18.940;2023-02-26T05:50:43;2.20;84.80
70336;SHT31;57756;47.408;18.940;2023-02-26T05:53:09;2.16;85.12
70336;SHT31;57756;47.408;18.940;2023-02-26T05:55:35;2.10;85.30
70336;SHT31;57756;47.408;18.940;2023-02-26T05:58:01;2.11;85.53
70336;SHT31;57756;47.408;18.940;2023-02-26T06:00:26;2.05;85.54
70336;SHT31;57756;47.408;18.940;2023-02-26T06:02:52;2.14;85.31
70336;SHT31;57756;47.408;18.940;2023-02-26T06:05:18;2.13;85.36
70336;SHT31;57756;47.408;18.940;2023-02-26T06:07:43;2.17;85.44
70336;SHT31;57756;47.408;18.940;2023-02-26T06:10:10;2.16;85.49
70336;SHT31;57756;47.408;18.940;2023-02-26T06:12:36;2.14;85.60
70336;SHT31;57756;47.408;18.940;2023-02-26T06:15:03;2.16;85.79
70336;SHT31;57756;47.408;18.940;2023-02-26T06:17:28;2.13;85.60
70336;SHT31;57756;47.408;18.940;2023-02-26T06:19:54;2.14;85.99
70336;SHT31;57756;47.408;18.940;2023-02-26T06:22:19;2.19;85.80
70336;SHT31;57756;47.408;18.940;2023-02-26T06:24:45;2.16;85.83
70336;SHT31;57756;47.408;18.940;2023-02-26T06:27:11;2.14;85.55
70336;SHT31;57756;47.408;18.940;2023-02-26T06:29:36;2.13;85.96
70336;SHT31;57756;47.408;18.940;2023-02-26T06:32:04;2.11;85.98
70336;SHT31;57756;47.408;18.940;2023-02-26T06:34:29;2.17;85.81
70336;SHT31;57756;47.408;18.940;2023-02-26T06:36:55;2.20;85.44
70336;SHT31;57756;47.408;18.940;2023-02-26T06:39:20;2.24;85.77
70336;SHT31;57756;47.408;18.940;2023-02-26T06:41:46;2.28;85.70
70336;SHT31;57756;47.408;18.940;2023-02-26T06:44:11;2.34;85.34
70336;SHT31;57756;47.408;18.940;2023-02-26T06:46:37;2.36;85.51
70336;SHT31;57756;47.408;18.940;2023-02-26T06:49:03;2.36;85.72
70336;SHT31;57756;47.408;18.940;2023-02-26T06:51:28;2.42;85.53
70336;SHT31;57756;47.408;18.940;2023-02-26T06:53:55;2.44;85.03
70336;SHT31;57756;47.408;18.940;2023-02-26T06:56:20;2.45;85.16
70336;SHT31;57756;47.408;18.940;2023-02-26T06:58:46;2.44;85.48
70336;SHT31;57756;47.408;18.940;2023-02-26T07:01:12;2.49;85.44
70336;SHT31;57756;47.408;18.940;2023-02-26T07:03:37;2.51;85.12
70336;SHT31;57756;47.408;18.940;2023-02-26T07:06:03;2.51;85.21
70336;SHT31;57756;47.408;18.940;2023-02-26T07:08:28;2.55;85.37
70336;SHT31;57756;47.408;18.940;2023-02-26T07:10:54;2.57;85.03
70336;SHT31;57756;47.408;18.940;2023-02-26T07:13:19;2.59;85.20
70336;SHT31;57756;47.408;18.940;2023-02-26T07:15:45;2.65;85.16
70336;SHT31;57756;47.408;18.940;2023-02-26T07:18:10;2.68;85.36
70336;SHT31;57756;47.408;18.940;2023-02-26T07:20:36;2.75;84.89
70336;SHT31;57756;47.408;18.940;2023-02-26T07:23:01;2.79;84.71
70336;SHT31;57756;47.408;18.940;2023-02-26T07:25:28;2.85;84.70
70336;SHT31;57756;47.408;18.940;2023-02-26T07:27:54;2.95;84.32
70336;SHT31;57756;47.408;18.940;2023-02-26T07:30:20;3.06;84.39
70336;SHT31;57756;47.408;18.940;2023-02-26T07:32:46;3.13;84.12
70336;SHT31;57756;47.408;18.940;2023-02-26T07:35:11;3.41;83.68
70336;SHT31;57756;47.408;18.940;2023-02-26T07:37:37;3.61;83.22
70336;SHT31;57756;47.408;18.940;2023-02-26T07:40:02;3.68;82.18
70336;SHT31;57756;47.408;18.940;2023-02-26T07:42:28;3.70;82.47
70336;SHT31;57756;47.408;18.940;2023-02-26T07:44:54;3.62;82.29
70336;SHT31;57756;47.408;18.940;2023-02-26T07:47:19;3.65;82.11
70336;SHT31;57756;47.408;18.940;2023-02-26T07:49:45;3.72;82.80
70336;SHT31;57756;47.408;18.940;2023-02-26T07:52:10;3.70;81.90
70336;SHT31;57756;47.408;18.940;2023-02-26T07:54:36;3.86;82.53
70336;SHT31;57756;47.408;18.940;2023-02-26T07:57:02;3.85;81.74
70336;SHT31;57756;47.408;18.940;2023-02-26T07:59:28;3.99;81.48
70336;SHT31;57756;47.408;18.940;2023-02-26T08:01:53;4.03;81.40
70336;SHT31;57756;47.408;18.940;2023-02-26T08:04:20;4.16;80.99
70336;SHT31;57756;47.408;18.940;2023-02-26T08:06:45;4.17;80.48
70336;SHT31;57756;47.408;18.940;2023-02-26T08:09:11;4.26;80.79
70336;SHT31;57756;47.408;18.940;2023-02-26T08:11:36;4.37;80.57
70336;SHT31;57756;47.408;18.940;2023-02-26T08:14:08;4.40;80.79
70336;SHT31;57756;47.408;18.940;2023-02-26T08:16:35;4.32;80.16
70336;SHT31;57756;47.408;18.940;2023-02-26T08:19:00;4.39;80.41
70336;SHT31;57756;47.408;18.940;2023-02-26T08:21:27;4.23;80.30
70336;SHT31;57756;47.408;18.940;2023-02-26T08:23:52;4.17;80.81
70336;SHT31;57756;47.408;18.940;2023-02-26T08:26:18;4.16;80.79
70336;SHT31;57756;47.408;18.940;2023-02-26T08:28:44;4.10;80.24
70336;SHT31;57756;47.408;18.940;2023-02-26T08:31:11;4.14;80.42
70336;SHT31;57756;47.408;18.940;2023-02-26T08:33:38;4.16;80.53
70336;SHT31;57756;47.408;18.940;2023-02-26T08:36:03;4.19;80.43
70336;SHT31;57756;47.408;18.940;2023-02-26T08:38:29;4.28;80.65
70336;SHT31;57756;47.408;18.940;2023-02-26T08:40:55;4.23;80.10
70336;SHT31;57756;47.408;18.940;2023-02-26T08:43:21;4.29;80.34
70336;SHT31;57756;47.408;18.940;2023-02-26T08:45:47;4.40;79.89
70336;SHT31;57756;47.408;18.940;2023-02-26T08:48:13;4.51;80.10
70336;SHT31;57756;47.408;18.940;2023-02-26T08:50:39;4.58;79.46
70336;SHT31;57756;47.408;18.940;2023-02-26T08:53:05;4.60;79.31
70336;SHT31;57756;47.408;18.940;2023-02-26T08:55:31;4.67;78.92
70336;SHT31;57756;47.408;18.940;2023-02-26T08:57:56;4.71;78.98
70336;SHT31;57756;47.408;18.940;2023-02-26T09:00:22;4.77;79.51
70336;SHT31;57756;47.408;18.940;2023-02-26T09:02:48;4.82;79.02
70336;SHT31;57756;47.408;18.940;2023-02-26T09:05:14;4.95;78.87
70336;SHT31;57756;47.408;18.940;2023-02-26T09:07:40;4.98;77.56
70336;SHT31;57756;47.408;18.940;2023-02-26T09:10:06;5.15;78.08
70336;SHT31;57756;47.408;18.940;2023-02-26T09:12:32;5.32;77.70
70336;SHT31;57756;47.408;18.940;2023-02-26T09:15:00;5.44;76.89
70336;SHT31;57756;47.408;18.940;2023-02-26T09:17:26;5.47;76.33
70336;SHT31;57756;47.408;18.940;2023-02-26T09:19:51;5.43;76.02
70336;SHT31;57756;47.408;18.940;2023-02-26T09:22:16;5.50;76.57
70336;SHT31;57756;47.408;18.940;2023-02-26T09:24:42;5.58;75.37
70336;SHT31;57756;47.408;18.940;2023-02-26T09:27:07;5.53;75.58
70336;SHT31;57756;47.408;18.940;2023-02-26T09:29:34;5.64;75.85
70336;SHT31;57756;47.408;18.940;2023-02-26T09:32:00;5.74;75.48
70336;SHT31;57756;47.408;18.940;2023-02-26T09:34:26;5.79;76.06
70336;SHT31;57756;47.408;18.940;2023-02-26T09:36:51;5.78;75.65
70336;SHT31;57756;47.408;18.940;2023-02-26T09:39:16;5.91;74.91
70336;SHT31;57756;47.408;18.940;2023-02-26T09:41:49;6.01;74.85
70336;SHT31;57756;47.408;18.940;2023-02-26T09:44:29;6.05;75.08
70336;SHT31;57756;47.408;18.940;2023-02-26T09:46:58;6.29;74.81
70336;SHT31;57756;47.408;18.940;2023-02-26T09:54:47;6.44;73.06
70336;SHT31;57756;47.408;18.940;2023-02-26T09:57:26;6.64;72.38
70336;SHT31;57756;47.408;18.940;2023-02-26T09:59:56;6.80;70.53
70336;SHT31;57756;47.408;18.940;2023-02-26T10:02:53;6.80;69.87
70336;SHT31;57756;47.408;18.940;2023-02-26T10:05:31;6.97;68.77
70336;SHT31;57756;47.408;18.940;2023-02-26T10:08:03;7.18;68.69
70336;SHT31;57756;47.408;18.940;2023-02-26T10:10:49;7.20;69.01
70336;SHT31;57756;47.408;18.940;2023-02-26T10:16:17;7.50;68.51
70336;SHT31;57756;47.408;18.940;2023-02-26T10:18:51;7.53;68.67
70336;SHT31;57756;47.408;18.940;2023-02-26T10:21:27;7.62;67.42
70336;SHT31;57756;47.408;18.940;2023-02-26T10:23:56;7.70;67.13
70336;SHT31;57756;47.408;18.940;2023-02-26T10:26:25;7.67;67.60
70336;SHT31;57756;47.408;18.940;2023-02-26T10:39:28;8.05;65.77
70336;SHT31;57756;47.408;18.940;2023-02-26T10:41:58;8.18;64.93
70336;SHT31;57756;47.408;18.940;2023-02-26T10:44:33;8.31;64.64
70336;SHT31;57756;47.408;18.940;2023-02-26T10:47:12;8.32;64.89
70336;SHT31;57756;47.408;18.940;2023-02-26T10:50:08;8.52;64.13
70336;SHT31;57756;47.408;18.940;2023-02-26T10:52:35;8.22;62.55
70336;SHT31;57756;47.408;18.940;2023-02-26T10:58:19;8.61;63.81
70336;SHT31;57756;47.408;18.940;2023-02-26T11:00:47;8.70;65.06
70336;SHT31;57756;47.408;18.940;2023-02-26T11:03:32;8.42;62.30
70336;SHT31;57756;47.408;18.940;2023-02-26T11:05:58;8.46;63.68
70336;SHT31;57756;47.408;18.940;2023-02-26T11:08:32;8.24;64.03
70336;SHT31;57756;47.408;18.940;2023-02-26T11:11:00;8.08;63.13
70336;SHT31;57756;47.408;18.940;2023-02-26T11:13:28;7.88;63.21
70336;SHT31;57756;47.408;18.940;2023-02-26T11:15:56;7.70;63.53
70336;SHT31;57756;47.408;18.940;2023-02-26T11:18:44;7.87;64.31
70336;SHT31;57756;47.408;18.940;2023-02-26T11:21:26;7.80;64.45
70336;SHT31;57756;47.408;18.940;2023-02-26T11:24:16;7.33;63.72
70336;SHT31;57756;47.408;18.940;2023-02-26T11:26:47;7.42;64.61
70336;SHT31;57756;47.408;18.940;2023-02-26T11:29:16;7.46;64.99
70336;SHT31;57756;47.408;18.940;2023-02-26T11:31:42;7.47;64.12
70336;SHT31;57756;47.408;18.940;2023-02-26T11:34:10;7.54;64.30
70336;SHT31;57756;47.408;18.940;2023-02-26T11:36:39;7.49;64.52
70336;SHT31;57756;47.408;18.940;2023-02-26T11:39:17;7.49;63.81
70336;SHT31;57756;47.408;18.940;2023-02-26T11:41:45;7.40;64.39
70336;SHT31;57756;47.408;18.940;2023-02-26T11:44:13;7.35;63.91
70336;SHT31;57756;47.408;18.940;2023-02-26T11:47:13;7.85;64.55
70336;SHT31;57756;47.408;18.940;2023-02-26T11:49:48;7.63;63.98
70336;SHT31;57756;47.408;18.940;2023-02-26T11:54:40;7.73;64.42
70336;SHT31;57756;47.408;18.940;2023-02-26T11:57:14;7.91;65.01
70336;SHT31;57756;47.408;18.940;2023-02-26T11:59:40;8.15;64.54
70336;SHT31;57756;47.408;18.940;2023-02-26T12:02:13;8.15;63.95
70336;SHT31;57756;47.408;18.940;2023-02-26T12:04:43;8.04;63.17
70336;SHT31;57756;47.408;18.940;2023-02-26T12:07:14;7.91;64.12
70336;SHT31;57756;47.408;18.940;2023-02-26T12:09:40;8.01;63.52
70336;SHT31;57756;47.408;18.940;2023-02-26T12:12:44;7.81;63.58
70336;SHT31;57756;47.408;18.940;2023-02-26T12:15:26;7.91;64.09
70336;SHT31;57756;47.408;18.940;2023-02-26T12:21:05;8.01;64.92
70336;SHT31;57756;47.408;18.940;2023-02-26T12:26:58;8.01;65.30
70336;SHT31;57756;47.408;18.940;2023-02-26T12:32:10;8.08;64.28
70336;SHT31;57756;47.408;18.940;2023-02-26T12:37:50;7.66;65.01
70336;SHT31;57756;47.408;18.940;2023-02-26T12:40:53;7.64;64.96
70336;SHT31;57756;47.408;18.940;2023-02-26T13:00:21;8.05;65.48
70336;SHT31;57756;47.408;18.940;2023-02-26T13:09:08;7.56;64.56
70336;SHT31;57756;47.408;18.940;2023-02-26T13:11:46;7.35;65.29
70336;SHT31;57756;47.408;18.940;2023-02-26T13:19:51;7.30;66.08
70336;SHT31;57756;47.408;18.940;2023-02-26T13:22:41;7.14;65.84
70336;SHT31;57756;47.408;18.940;2023-02-26T13:27:42;6.97;66.09
70336;SHT31;57756;47.408;18.940;2023-02-26T13:32:38;6.87;66.26
70336;SHT31;57756;47.408;18.940;2023-02-26T13:35:17;7.06;67.23
70336;SHT31;57756;47.408;18.940;2023-02-26T13:37:50;7.08;65.79
70336;SHT31;57756;47.408;18.940;2023-02-26T13:43:06;6.95;65.60
70336;SHT31;57756;47.408;18.940;2023-02-26T13:45:47;6.94;65.44
70336;SHT31;57756;47.408;18.940;2023-02-26T13:53:51;6.95;66.15
70336;SHT31;57756;47.408;18.940;2023-02-26T13:58:52;7.01;66.27
70336;SHT31;57756;47.408;18.940;2023-02-26T14:01:27;7.01;67.45
70336;SHT31;57756;47.408;18.940;2023-02-26T14:07:11;6.92;66.04
70336;SHT31;57756;47.408;18.940;2023-02-26T14:09:56;6.78;66.54
70336;SHT31;57756;47.408;18.940;2023-02-26T14:12:33;6.87;68.56
70336;SHT31;57756;47.408;18.940;2023-02-26T14:27:42;6.34;74.10
70336;SHT31;57756;47.408;18.940;2023-02-26T14:32:52;6.33;74.53
70336;SHT31;57756;47.408;18.940;2023-02-26T14:35:24;6.36;74.05
70336;SHT31;57756;47.408;18.940;2023-02-26T14:40:23;6.20;72.79
70336;SHT31;57756;47.408;18.940;2023-02-26T14:42:58;6.19;73.26
70336;SHT31;57756;47.408;18.940;2023-02-26T14:45:31;6.20;73.66
70336;SHT31;57756;47.408;18.940;2023-02-26T14:48:00;6.12;74.08
70336;SHT31;57756;47.408;18.940;2023-02-26T14:50:44;6.12;74.17
70336;SHT31;57756;47.408;18.940;2023-02-26T14:58:59;6.11;72.32
70336;SHT31;57756;47.408;18.940;2023-02-26T15:01:48;6.12;70.92
70336;SHT31;57756;47.408;18.940;2023-02-26T15:04:43;6.03;72.00
70336;SHT31;57756;47.408;18.940;2023-02-26T15:07:28;5.99;70.68
70336;SHT31;57756;47.408;18.940;2023-02-26T15:12:49;5.92;71.63
70336;SHT31;57756;47.408;18.940;2023-02-26T15:21:28;5.79;71.57
70336;SHT31;57756;47.408;18.940;2023-02-26T15:23:56;5.82;72.42
70336;SHT31;57756;47.408;18.940;2023-02-26T15:26:26;5.81;72.24
70336;SHT31;57756;47.408;18.940;2023-02-26T15:28:53;5.75;71.00
70336;SHT31;57756;47.408;18.940;2023-02-26T15:31:26;5.75;70.57
70336;SHT31;57756;47.408;18.940;2023-02-26T15:33:55;5.73;69.29
70336;SHT31;57756;47.408;18.940;2023-02-26T15:36:20;5.67;69.89
70336;SHT31;57756;47.408;18.940;2023-02-26T15:38:53;5.63;69.86
70336;SHT31;57756;47.408;18.940;2023-02-26T15:41:19;5.63;69.65
70336;SHT31;57756;47.408;18.940;2023-02-26T15:44:04;5.65;69.78
70336;SHT31;57756;47.408;18.940;2023-02-26T15:46:34;5.60;70.12
70336;SHT31;57756;47.408;18.940;2023-02-26T15:49:05;5.64;70.30
70336;SHT31;57756;47.408;18.940;2023-02-26T15:51:32;5.65;70.55
70336;SHT31;57756;47.408;18.940;2023-02-26T15:53:58;5.57;70.01
70336;SHT31;57756;47.408;18.940;2023-02-26T15:56:30;5.60;70.00
70336;SHT31;57756;47.408;18.940;2023-02-26T15:59:26;5.61;70.25
70336;SHT31;57756;47.408;18.940;2023-02-26T16:01:53;5.54;70.64
70336;SHT31;57756;47.408;18.940;2023-02-26T16:04:20;5.55;70.51
70336;SHT31;57756;47.408;18.940;2023-02-26T16:06:52;5.58;70.10
70336;SHT31;57756;47.408;18.940;2023-02-26T16:11:46;5.50;70.43
70336;SHT31;57756;47.408;18.940;2023-02-26T16:14:17;5.48;70.36
70336;SHT31;57756;47.408;18.940;2023-02-26T16:16:51;5.50;70.85
70336;SHT31;57756;47.408;18.940;2023-02-26T16:19:20;5.48;70.95
70336;SHT31;57756;47.408;18.940;2023-02-26T16:21:47;5.51;70.34
70336;SHT31;57756;47.408;18.940;2023-02-26T16:24:16;5.48;70.46
70336;SHT31;57756;47.408;18.940;2023-02-26T16:26:46;5.48;71.18
70336;SHT31;57756;47.408;18.940;2023-02-26T16:29:28;5.43;71.13
70336;SHT31;57756;47.408;18.940;2023-02-26T16:31:59;5.42;71.04
70336;SHT31;57756;47.408;18.940;2023-02-26T16:34:49;5.39;72.17
70336;SHT31;57756;47.408;18.940;2023-02-26T16:40:15;5.40;71.25
70336;SHT31;57756;47.408;18.940;2023-02-26T16:47:40;5.34;70.36
70336;SHT31;57756;47.408;18.940;2023-02-26T16:50:17;5.39;69.85
70336;SHT31;57756;47.408;18.940;2023-02-26T16:52:46;5.29;69.90
70336;SHT31;57756;47.408;18.940;2023-02-26T16:55:12;5.27;70.57
70336;SHT31;57756;47.408;18.940;2023-02-26T16:57:43;5.25;70.38
70336;SHT31;57756;47.408;18.940;2023-02-26T17:00:15;5.27;71.38
70336;SHT31;57756;47.408;18.940;2023-02-26T17:02:59;5.23;70.43
70336;SHT31;57756;47.408;18.940;2023-02-26T17:05:29;5.25;71.84
70336;SHT31;57756;47.408;18.940;2023-02-26T17:08:04;5.20;72.94
70336;SHT31;57756;47.408;18.940;2023-02-26T17:10:42;5.15;72.74
70336;SHT31;57756;47.408;18.940;2023-02-26T17:13:14;5.15;73.43
70336;SHT31;57756;47.408;18.940;2023-02-26T17:15:40;5.09;74.21
70336;SHT31;57756;47.408;18.940;2023-02-26T17:18:06;5.08;74.18
70336;SHT31;57756;47.408;18.940;2023-02-26T17:20:35;5.11;73.72
70336;SHT31;57756;47.408;18.940;2023-02-26T17:23:02;5.05;74.28
70336;SHT31;57756;47.408;18.940;2023-02-26T17:25:39;5.09;73.18
70336;SHT31;57756;47.408;18.940;2023-02-26T17:28:06;5.05;73.67
70336;SHT31;57756;47.408;18.940;2023-02-26T17:30:32;4.99;73.74
70336;SHT31;57756;47.408;18.940;2023-02-26T17:32:59;4.93;74.02
70336;SHT31;57756;47.408;18.940;2023-02-26T17:35:26;4.91;74.15
70336;SHT31;57756;47.408;18.940;2023-02-26T17:37:52;4.89;74.23
70336;SHT31;57756;47.408;18.940;2023-02-26T17:40:30;4.92;74.20
70336;SHT31;57756;47.408;18.940;2023-02-26T17:42:57;4.87;74.45
70336;SHT31;57756;47.408;18.940;2023-02-26T17:45:24;4.87;74.28
70336;SHT31;57756;47.408;18.940;2023-02-26T17:47:50;4.84;74.33
70336;SHT31;57756;47.408;18.940;2023-02-26T17:50:45;4.79;74.44
70336;SHT31;57756;47.408;18.940;2023-02-26T17:53:13;4.71;75.22
70336;SHT31;57756;47.408;18.940;2023-02-26T17:55:38;4.64;74.73
70336;SHT31;57756;47.408;18.940;2023-02-26T17:58:14;4.67;75.12
70336;SHT31;57756;47.408;18.940;2023-02-26T18:00:40;4.58;75.14
70336;SHT31;57756;47.408;18.940;2023-02-26T18:03:08;4.51;75.74
70336;SHT31;57756;47.408;18.940;2023-02-26T18:05:34;4.50;75.49
70336;SHT31;57756;47.408;18.940;2023-02-26T18:08:04;4.46;75.37
70336;SHT31;57756;47.408;18.940;2023-02-26T18:10:31;4.41;75.74
70336;SHT31;57756;47.408;18.940;2023-02-26T18:12:57;4.36;76.19
70336;SHT31;57756;47.408;18.940;2023-02-26T18:15:24;4.36;76.01
70336;SHT31;57756;47.408;18.940;2023-02-26T18:17:50;4.32;76.34
70336;SHT31;57756;47.408;18.940;2023-02-26T18:20:20;4.32;76.73
70336;SHT31;57756;47.408;18.940;2023-02-26T18:22:50;4.30;76.75
70336;SHT31;57756;47.408;18.940;2023-02-26T18:25:17;4.28;77.02
70336;SHT31;57756;47.408;18.940;2023-02-26T18:27:42;4.33;76.24
70336;SHT31;57756;47.408;18.940;2023-02-26T18:30:34;4.28;76.81
70336;SHT31;57756;47.408;18.940;2023-02-26T18:33:02;4.30;76.46
70336;SHT31;57756;47.408;18.940;2023-02-26T18:35:29;4.28;76.76
70336;SHT31;57756;47.408;18.940;2023-02-26T18:37:55;4.24;76.62
70336;SHT31;57756;47.408;18.940;2023-02-26T18:40:23;4.23;76.74
70336;SHT31;57756;47.408;18.940;2023-02-26T18:42:49;4.26;76.50